Maceio の空港の天気 - METARとTAF

マセイオ/ズンビ・ドス・パウマーレス国際空港 ( SBMO / MCZ ) - ブラジル アラゴアス州、Maceio
飛行場実況気象(Metar)
観測時間01/29 04:00 BRT (01/29 07:00 UTC)
風向・風速北北東 1m/s
視程10km以上
天気現象
少しの雲 雲底高度 610m
全天の8割程度の雲 雲底高度 3050m
気温24℃
湿度78%
気圧1012hPa
METARSBMO 290700Z 03002KT 9999 FEW020 BKN100 24/20 Q1012
過去の天気等 Google飛行場航空写真 Wunderground天気予報

過去48時間のMETAR

飛行場予報(TAF)
発表時間: 1/29 01:50 BRT (1/29 04:50 UTC)
予報対象時間: 29日3時 BRT ~ 30日3時 BRT
風向・風速西北西 3m/s
視程10km以上
少しの雲 雲底高度 610m
29日7時 BRT ~ 29日9時 BRT に徐々に
風向・風速西北西 2m/s
全天の8割程度の雲 雲底高度 520m
29日9時 BRT ~ 29日11時 BRT に徐々に
風向・風速東 5m/s
全天の8割程度の雲 雲底高度 610m
少しの塔状積雲 雲底高度 760m
29日12時 BRT ~ 29日14時 BRT に徐々に
視程8000m
天気現象しゅう雨
全天の8割程度の雲 雲底高度 760m
少しの塔状積雲 雲底高度 910m
29日15時 BRT ~ 29日18時 BRT に一時的に
風向・風速東南東 8m/s
視程7000m
天気現象雷雨
全天の8割程度の雲 雲底高度 610m
少しの積乱雲 雲底高度 910m
29日18時 BRT ~ 29日20時 BRT に徐々に
風向・風速東北東 4m/s
視程10km以上
天気現象運行に影響にある天気現象が終了
全天の4割程度の雲 雲底高度 610m
29日22時 BRT ~ 29日24時 BRT に徐々に
風向・風速北北東 2m/s
少しの雲 雲底高度 520m
TAF SBMO 290450Z 2906/3006 29005KT 9999 FEW020 TN24/2909Z TX31/2915Z
BECMG 2910/2912 29003KT BKN017
BECMG 2912/2914 09010KT BKN020 FEW025TCU
BECMG 2915/2917 8000 SHRA BKN025 FEW030TCU
TEMPO 2918/2921 12015KT 7000 TSRA BKN020 FEW030CB
BECMG 2921/2923 07007KT 9999 NSW SCT020
BECMG 3001/3003 02003KT FEW017 RMK PFV